Time;durP1;ratioP1;P1;durP2;ratioP2;P2;SDS_P1;SDS_P2;PMS_P1;PMS_P2;Temp;Humidity;BMP_temperature;BMP_pressure;BME280_temperature;BME280_humidity;BME280_pressure;Samples;Min_cycle;Max_cycle;Signal;HPM_P1;HPM_P2
2023/03/17 00:01:18;;;;;;;13.43;12.53;;;9.50;24.50;;;;;;4935094;29;20411;-53
2023/03/17 00:03:46;;;;;;;13.37;12.50;;;9.40;24.60;;;;;;4935558;29;20434;-52
2023/03/17 00:06:26;;;;;;;13.67;12.73;;;9.60;24.70;;;;;;4934392;29;20571;-55
2023/03/17 00:08:52;;;;;;;12.03;11.37;;;9.70;24.40;;;;;;4935107;29;20418;-52
2023/03/17 00:11:20;;;;;;;13.97;13.07;;;9.90;23.90;;;;;;4951874;29;20417;-57
2023/03/17 00:13:46;;;;;;;13.10;12.40;;;10.00;23.20;;;;;;4934964;29;20207;-58
2023/03/17 00:16:16;;;;;;;11.53;10.80;;;9.90;23.80;;;;;;4934268;29;20796;-58
2023/03/17 00:18:43;;;;;;;11.40;10.73;;;9.80;23.80;;;;;;4934214;29;20427;-58
2023/03/17 00:21:14;;;;;;;11.70;11.00;;;9.70;23.70;;;;;;4933952;29;20434;-58
2023/03/17 00:23:40;;;;;;;12.20;11.50;;;9.60;23.70;;;;;;4934122;29;20518;-57
2023/03/17 00:26:06;;;;;;;12.60;11.70;;;9.70;23.70;;;;;;4934116;29;20518;-57
2023/03/17 00:28:32;;;;;;;11.33;10.70;;;9.70;23.70;;;;;;4951192;29;20506;-58
2023/03/17 00:31:00;;;;;;;12.47;11.80;;;9.70;22.90;;;;;;4934051;29;20214;-57
2023/03/17 00:33:29;;;;;;;12.00;11.30;;;9.70;23.70;;;;;;4933440;29;20952;-58
2023/03/17 00:35:56;;;;;;;12.80;12.10;;;9.90;23.80;;;;;;4933670;29;20788;-59
2023/03/17 00:38:23;;;;;;;12.00;11.20;;;10.00;22.50;;;;;;4933717;29;20798;-58
2023/03/17 00:40:50;;;;;;;11.97;11.27;;;10.10;22.30;;;;;;4933883;29;20445;-60
2023/03/17 00:43:16;;;;;;;11.03;10.20;;;10.20;21.90;;;;;;4933782;29;20868;-59
2023/03/17 00:45:42;;;;;;;11.50;10.90;;;10.30;21.00;;;;;;4933831;29;20502;-59
2023/03/17 00:48:20;;;;;;;11.37;10.67;;;9.90;21.30;;;;;;4933875;29;20423;-59
2023/03/17 00:50:47;;;;;;;12.00;11.30;;;9.70;22.30;;;;;;4933264;29;20957;-59
2023/03/17 00:53:15;;;;;;;11.37;10.77;;;9.60;23.10;;;;;;4933351;29;20467;-59
2023/03/17 00:55:43;;;;;;;11.10;10.50;;;9.80;23.60;;;;;;4933627;29;20418;-59
2023/03/17 00:58:27;;;;;;;10.37;9.87;;;9.90;22.80;;;;;;4933376;29;20850;-59
2023/03/17 01:00:53;;;;;;;10.93;10.23;;;9.70;22.30;;;;;;4933724;29;20438;-59
2023/03/17 01:03:20;;;;;;;11.00;10.40;;;9.80;21.90;;;;;;4933852;29;20427;-58
2023/03/17 01:05:47;;;;;;;11.70;11.10;;;9.90;22.40;;;;;;4933393;29;21003;-59
2023/03/17 01:08:13;;;;;;;11.70;11.10;;;10.00;21.00;;;;;;4933373;29;20829;-59
2023/03/17 01:10:39;;;;;;;10.60;10.00;;;10.10;20.50;;;;;;4933763;29;20469;-59
2023/03/17 01:13:05;;;;;;;10.93;10.33;;;10.30;20.20;;;;;;4950830;29;20502;-59
2023/03/17 01:15:32;;;;;;;10.70;10.10;;;10.40;19.50;;;;;;4935122;29;20172;-59
2023/03/17 01:18:00;;;;;;;10.40;9.90;;;10.20;20.10;;;;;;4933020;29;20501;-59
2023/03/17 01:20:35;;;;;;;11.20;10.60;;;10.20;20.50;;;;;;4934621;29;20870;-59
2023/03/17 01:23:01;;;;;;;11.30;10.63;;;10.20;20.00;;;;;;4936345;29;20782;-59
2023/03/17 01:25:27;;;;;;;10.60;10.10;;;10.30;19.80;;;;;;4936540;29;20411;-51
2023/03/17 01:27:58;;;;;;;10.63;10.03;;;10.40;19.70;;;;;;4936658;29;20475;-55
2023/03/17 01:30:38;;;;;;;10.00;9.47;;;10.50;19.70;;;;;;4936530;29;20466;-54
2023/03/17 01:33:08;;;;;;;9.80;9.30;;;10.60;19.50;;;;;;4936844;29;20466;-54
2023/03/17 01:35:37;;;;;;;10.40;9.80;;;10.60;19.50;;;;;;4936021;29;20474;-54
2023/03/17 01:38:03;;;;;;;10.50;10.00;;;10.60;19.60;;;;;;4935936;29;21048;-52
2023/03/17 01:40:32;;;;;;;10.93;10.33;;;10.40;20.00;;;;;;4936450;29;20760;-52
2023/03/17 01:43:07;;;;;;;11.80;11.20;;;10.20;20.50;;;;;;4936504;29;20418;-54
2023/03/17 01:46:13;;;;;;;11.50;10.80;;;10.30;20.50;;;;;;4953628;29;20796;-56
2023/03/17 01:49:11;;;;;;;12.00;11.30;;;10.00;20.10;;;;;;4935619;29;20774;-53
2023/03/17 01:51:49;;;;;;;11.20;10.50;;;9.70;21.80;;;;;;4936215;29;20407;-52
2023/03/17 01:54:44;;;;;;;10.97;10.37;;;9.60;22.10;;;;;;4935722;29;20466;-54
2023/03/17 01:57:33;;;;;;;11.80;11.10;;;9.60;22.00;;;;;;4923294;29;20823;-56
2023/03/17 02:00:12;;;;;;;11.70;10.77;;;9.80;22.30;;;;;;4935861;29;20422;-54
2023/03/17 02:02:40;;;;;;;10.87;10.27;;;9.70;21.80;;;;;;4936001;29;20422;-58
2023/03/17 02:05:10;;;;;;;12.10;11.40;;;9.70;22.00;;;;;;4936124;29;20418;-59
2023/03/17 02:07:37;;;;;;;10.90;10.30;;;9.60;22.00;;;;;;4935683;29;20677;-58
2023/03/17 02:10:04;;;;;;;10.53;9.83;;;9.50;22.30;;;;;;4936047;29;20810;-59
2023/03/17 02:12:32;;;;;;;12.17;11.30;;;9.50;22.10;;;;;;4936087;29;20479;-59
2023/03/17 02:14:58;;;;;;;11.90;11.20;;;9.70;22.10;;;;;;4935349;29;20466;-58
2023/03/17 02:17:26;;;;;;;12.17;11.57;;;9.70;22.00;;;;;;4935576;29;20782;-59
2023/03/17 02:19:52;;;;;;;11.87;10.90;;;9.60;22.50;;;;;;4935357;29;20609;-58
2023/03/17 02:22:19;;;;;;;12.17;11.57;;;9.80;22.30;;;;;;4935041;29;20450;-59
2023/03/17 02:24:55;;;;;;;12.47;11.77;;;9.90;21.70;;;;;;4935190;29;20427;-59
2023/03/17 02:27:29;;;;;;;11.40;10.77;;;9.80;21.60;;;;;;4935798;29;20992;-58
2023/03/17 02:29:55;;;;;;;11.63;10.83;;;9.60;21.70;;;;;;4935441;29;20458;-59
2023/03/17 02:32:21;;;;;;;10.73;10.17;;;9.80;22.00;;;;;;4933790;29;20422;-58
2023/03/17 02:34:47;;;;;;;11.07;10.37;;;9.80;22.10;;;;;;4935063;29;20235;-60
2023/03/17 02:37:14;;;;;;;11.67;10.97;;;10.00;21.30;;;;;;4934969;29;20178;-59
2023/03/17 02:39:40;;;;;;;11.00;10.33;;;10.10;21.20;;;;;;4935502;29;20722;-59
2023/03/17 02:42:06;;;;;;;11.27;10.57;;;10.10;21.00;;;;;;4935200;29;20950;-59
2023/03/17 02:44:32;;;;;;;10.70;10.10;;;10.10;20.20;;;;;;4952094;29;20415;-59
2023/03/17 02:46:58;;;;;;;11.67;10.97;;;10.10;20.80;;;;;;4934954;29;20174;-59
2023/03/17 02:49:24;;;;;;;11.40;10.80;;;10.20;20.60;;;;;;4934718;29;20214;-59
2023/03/17 02:51:51;;;;;;;10.40;9.80;;;10.30;20.30;;;;;;4934329;29;20423;-58
2023/03/17 02:54:16;;;;;;;11.10;10.50;;;10.30;20.30;;;;;;4934897;29;20470;-50
2023/03/17 02:56:42;;;;;;;11.27;10.67;;;10.40;20.10;;;;;;4934310;29;20554;-51
2023/03/17 02:59:08;;;;;;;11.23;10.53;;;10.40;20.40;;;;;;4934296;29;20176;-53
2023/03/17 03:01:34;;;;;;;10.00;9.43;;;10.20;20.80;;;;;;4934371;29;20849;-55
2023/03/17 03:04:01;;;;;;;11.20;10.60;;;10.20;20.70;;;;;;4934569;29;20586;-51
2023/03/17 03:06:26;;;;;;;11.57;10.87;;;10.10;20.70;;;;;;4934334;29;20509;-49
2023/03/17 03:08:52;;;;;;;10.83;10.23;;;10.20;20.70;;;;;;4934563;29;20493;-49
2023/03/17 03:11:18;;;;;;;10.93;10.33;;;10.30;21.10;;;;;;4934054;29;20623;-55
2023/03/17 03:13:44;;;;;;;11.30;10.50;;;10.30;20.70;;;;;;4937809;29;20206;-58
2023/03/17 03:16:10;;;;;;;11.70;11.10;;;10.40;20.60;;;;;;4937689;29;20415;-58
2023/03/17 03:18:36;;;;;;;10.80;10.20;;;10.40;20.40;;;;;;4937068;29;20423;-59
2023/03/17 03:21:03;;;;;;;11.73;10.93;;;10.40;20.60;;;;;;4934167;29;20209;-59
2023/03/17 03:23:29;;;;;;;11.43;10.83;;;10.40;20.60;;;;;;4934733;29;20535;-58
2023/03/17 03:25:55;;;;;;;11.90;11.27;;;10.40;20.40;;;;;;4933819;29;20433;-60
2023/03/17 03:28:21;;;;;;;11.53;10.93;;;10.50;20.60;;;;;;4950769;29;20427;-60
2023/03/17 03:30:47;;;;;;;12.87;11.67;;;10.50;21.10;;;;;;4933694;29;20180;-59
2023/03/17 03:33:13;;;;;;;11.87;11.17;;;10.50;20.60;;;;;;4951032;29;20545;-50
2023/03/17 03:35:39;;;;;;;11.70;11.10;;;10.40;20.70;;;;;;4934445;29;20195;-54
2023/03/17 03:38:06;;;;;;;11.30;10.70;;;10.40;20.80;;;;;;4933422;29;20446;-55
2023/03/17 03:40:33;;;;;;;11.87;11.23;;;10.40;20.90;;;;;;4933768;29;20438;-52
2023/03/17 03:42:58;;;;;;;11.90;11.20;;;10.40;21.00;;;;;;4933794;29;20411;-56
2023/03/17 03:45:24;;;;;;;11.60;10.73;;;10.40;21.10;;;;;;4933627;29;20470;-56
2023/03/17 03:47:50;;;;;;;11.83;11.00;;;10.30;21.00;;;;;;4934045;29;20609;-51
2023/03/17 03:50:16;;;;;;;11.40;10.80;;;10.30;21.10;;;;;;4934313;29;20471;-55
2023/03/17 03:52:41;;;;;;;11.57;10.97;;;10.30;21.10;;;;;;4934724;29;20271;-57
2023/03/17 03:55:07;;;;;;;11.90;11.20;;;10.30;21.10;;;;;;4937078;29;20214;-53
2023/03/17 03:57:33;;;;;;;12.20;11.20;;;10.10;21.50;;;;;;4936978;29;20652;-56
2023/03/17 03:59:59;;;;;;;10.80;10.30;;;9.90;22.90;;;;;;4936943;29;20505;-51
2023/03/17 04:02:25;;;;;;;11.83;11.23;;;9.90;22.90;;;;;;4934459;29;20419;-52
2023/03/17 04:04:52;;;;;;;10.83;10.30;;;9.90;22.60;;;;;;4933622;29;20179;-59
2023/03/17 04:07:20;;;;;;;11.23;10.63;;;10.00;21.90;;;;;;4933795;29;20478;-59
2023/03/17 04:09:48;;;;;;;10.80;10.20;;;10.00;21.80;;;;;;4950273;29;20426;-59
2023/03/17 04:12:14;;;;;;;11.77;11.13;;;10.00;22.00;;;;;;4932816;29;20438;-60
2023/03/17 04:14:41;;;;;;;11.10;10.50;;;10.10;21.70;;;;;;4932978;29;20470;-51
2023/03/17 04:17:07;;;;;;;12.10;11.50;;;10.10;21.00;;;;;;4933153;29;20427;-51
2023/03/17 04:19:33;;;;;;;10.70;10.10;;;10.10;21.30;;;;;;4932671;29;20419;-55
2023/03/17 04:21:59;;;;;;;10.33;9.63;;;10.10;20.90;;;;;;4933305;29;20937;-55
2023/03/17 04:24:26;;;;;;;11.43;10.73;;;10.00;20.70;;;;;;4933273;29;20215;-51
2023/03/17 04:26:52;;;;;;;10.77;9.97;;;10.10;20.70;;;;;;4933426;29;20852;-59
2023/03/17 04:29:18;;;;;;;10.43;9.83;;;10.10;20.40;;;;;;4950437;29;20415;-58
2023/03/17 04:31:45;;;;;;;11.00;10.40;;;10.10;20.30;;;;;;4934088;29;20443;-59
2023/03/17 04:34:16;;;;;;;11.20;10.40;;;10.10;20.20;;;;;;4933069;29;20546;-59
2023/03/17 04:36:44;;;;;;;10.80;10.20;;;10.20;20.10;;;;;;4933270;29;20419;-59
2023/03/17 04:39:09;;;;;;;10.83;10.23;;;10.20;19.80;;;;;;4933515;29;20784;-50
2023/03/17 04:41:35;;;;;;;10.47;9.97;;;10.20;19.50;;;;;;4933966;29;20418;-50
2023/03/17 04:44:01;;;;;;;10.90;10.10;;;10.30;19.70;;;;;;4932926;29;20187;-53
2023/03/17 04:46:27;;;;;;;10.90;10.30;;;10.30;18.80;;;;;;4933661;29;20190;-54
2023/03/17 04:48:52;;;;;;;11.40;10.80;;;10.00;18.80;;;;;;4933227;29;20270;-52
2023/03/17 04:51:18;;;;;;;9.90;9.40;;;9.90;20.60;;;;;;4932966;29;20643;-51
2023/03/17 04:53:44;;;;;;;10.60;10.00;;;9.90;20.90;;;;;;4933202;28;20226;-55
2023/03/17 04:56:10;;;;;;;10.40;9.90;;;9.70;20.70;;;;;;4936331;29;20179;-53
2023/03/17 04:58:37;;;;;;;10.47;9.87;;;9.90;20.90;;;;;;4936946;29;20948;-55
2023/03/17 05:01:03;;;;;;;10.20;9.60;;;10.00;19.80;;;;;;4937110;29;20442;-55
2023/03/17 05:03:30;;;;;;;11.20;10.60;;;10.10;19.70;;;;;;4937930;29;20904;-52
2023/03/17 05:05:56;;;;;;;10.40;9.80;;;10.20;19.60;;;;;;4937959;29;20771;-52
2023/03/17 05:08:23;;;;;;;10.80;10.30;;;10.30;19.70;;;;;;4937849;29;20431;-58
2023/03/17 05:10:49;;;;;;;10.90;10.40;;;10.40;19.20;;;;;;4938122;29;20423;-57
2023/03/17 05:13:16;;;;;;;10.40;9.83;;;10.50;19.30;;;;;;4937711;29;20516;-57
2023/03/17 05:15:49;;;;;;;11.03;10.43;;;10.50;19.10;;;;;;4937879;29;20832;-57
2023/03/17 05:18:15;;;;;;;12.07;11.37;;;10.60;19.10;;;;;;4937742;29;20426;-57
2023/03/17 05:20:41;;;;;;;10.97;10.47;;;10.60;18.80;;;;;;4937606;29;20422;-57
2023/03/17 05:23:07;;;;;;;11.00;10.40;;;10.60;18.90;;;;;;4937714;29;20422;-56
2023/03/17 05:25:33;;;;;;;10.70;10.10;;;10.60;19.20;;;;;;4937817;29;20558;-57
2023/03/17 05:27:59;;;;;;;10.80;10.20;;;10.50;19.00;;;;;;4938302;29;20486;-57
2023/03/17 05:30:25;;;;;;;10.47;9.97;;;10.50;18.80;;;;;;4937832;29;20179;-55
2023/03/17 05:32:51;;;;;;;10.83;9.83;;;10.50;18.30;;;;;;4938193;29;20426;-56
2023/03/17 05:35:17;;;;;;;10.83;10.10;;;10.40;18.60;;;;;;4938281;29;20210;-56
2023/03/17 05:37:43;;;;;;;11.47;10.87;;;10.30;18.20;;;;;;4938294;29;20656;-56
2023/03/17 05:40:11;;;;;;;11.43;10.83;;;10.10;19.00;;;;;;4937993;29;20510;-53
2023/03/17 05:42:37;;;;;;;10.30;9.73;;;10.10;19.00;;;;;;4955978;29;20477;-53
2023/03/17 05:45:04;;;;;;;9.93;9.43;;;10.10;19.00;;;;;;4955450;29;20410;-58
2023/03/17 05:47:32;;;;;;;11.10;10.43;;;10.10;18.80;;;;;;4950400;28;20488;-59
2023/03/17 05:50:01;;;;;;;9.20;8.70;;;10.10;18.60;;;;;;4958594;28;20981;-60
2023/03/17 05:52:27;;;;;;;11.23;10.53;;;10.20;18.90;;;;;;4944318;29;20422;-59
2023/03/17 05:54:53;;;;;;;9.80;9.20;;;10.10;19.60;;;;;;4952826;28;20815;-60
2023/03/17 05:57:20;;;;;;;10.63;10.03;;;10.00;19.40;;;;;;4938563;28;20423;-60
2023/03/17 05:59:46;;;;;;;11.00;10.30;;;9.80;20.10;;;;;;4938282;29;20419;-60
2023/03/17 06:02:13;;;;;;;13.63;12.83;;;9.80;20.60;;;;;;4938098;29;20423;-59
2023/03/17 06:04:39;;;;;;;10.30;9.60;;;9.70;20.60;;;;;;4938263;29;20431;-50
2023/03/17 06:07:05;;;;;;;10.97;10.27;;;9.80;21.40;;;;;;4938440;29;20431;-50
2023/03/17 06:09:32;;;;;;;10.60;10.00;;;9.90;20.60;;;;;;4954314;29;20791;-49
2023/03/17 06:11:58;;;;;;;11.33;10.63;;;10.00;19.70;;;;;;4938712;29;20437;-60
2023/03/17 06:14:24;;;;;;;10.77;10.03;;;9.80;21.00;;;;;;4938902;29;20466;-59
2023/03/17 06:16:50;;;;;;;10.50;9.73;;;9.90;21.30;;;;;;4938875;29;20505;-59
2023/03/17 06:19:16;;;;;;;11.80;11.10;;;10.00;21.20;;;;;;4938982;29;20848;-60
2023/03/17 06:21:42;;;;;;;11.03;10.40;;;10.00;21.70;;;;;;4938732;29;20300;-60
2023/03/17 06:24:09;;;;;;;11.77;10.63;;;10.00;20.60;;;;;;4954839;29;20294;-60
2023/03/17 06:26:36;;;;;;;11.33;10.70;;;10.10;20.40;;;;;;4938899;29;20526;-60
2023/03/17 06:29:02;;;;;;;11.80;11.07;;;10.20;20.00;;;;;;4938465;29;20198;-54
2023/03/17 06:31:28;;;;;;;11.17;10.37;;;10.20;20.00;;;;;;4954462;29;20419;-56
2023/03/17 06:33:53;;;;;;;11.70;11.10;;;10.20;20.10;;;;;;4954513;29;20475;-56
2023/03/17 06:36:19;;;;;;;10.40;9.80;;;10.20;19.80;;;;;;4954351;29;20217;-56
2023/03/17 06:38:45;;;;;;;12.03;11.23;;;10.30;19.80;;;;;;4938534;29;20179;-54
2023/03/17 06:41:11;;;;;;;11.60;10.80;;;10.20;19.80;;;;;;4938147;29;20245;-55
2023/03/17 06:43:37;;;;;;;11.07;10.37;;;10.20;20.40;;;;;;4938489;29;20187;-64
2023/03/17 06:46:03;;;;;;;12.33;11.20;;;10.20;20.40;;;;;;4954341;29;20419;-61
2023/03/17 06:48:28;;;;;;;11.20;10.60;;;10.30;21.70;;;;;;4932774;29;20494;-58
2023/03/17 06:50:54;;;;;;;12.47;11.67;;;10.30;22.40;;;;;;4929491;29;20188;-59
2023/03/17 06:53:20;;;;;;;11.80;11.20;;;10.30;21.60;;;;;;4933853;28;20203;-59
2023/03/17 06:55:47;;;;;;;16.50;15.30;;;10.30;21.20;;;;;;4935617;29;20198;-59
2023/03/17 06:58:14;;;;;;;14.00;12.77;;;10.20;21.40;;;;;;4954434;29;20426;-60
2023/03/17 07:00:40;;;;;;;14.03;13.23;;;10.30;21.40;;;;;;4938016;29;20426;-60
2023/03/17 07:03:06;;;;;;;13.27;12.17;;;10.40;21.20;;;;;;4953949;29;20795;-60
2023/03/17 07:05:32;;;;;;;13.50;12.60;;;10.30;20.90;;;;;;4953988;29;21062;-59
2023/03/17 07:07:58;;;;;;;14.40;13.47;;;10.30;20.80;;;;;;4937686;29;20510;-59
2023/03/17 07:10:24;;;;;;;14.23;13.23;;;10.30;21.30;;;;;;4938151;29;20655;-54
2023/03/17 07:12:50;;;;;;;14.00;12.67;;;10.20;21.10;;;;;;4937254;29;20415;-53
2023/03/17 07:15:17;;;;;;;14.47;13.50;;;10.20;21.10;;;;;;4937548;29;20823;-53
2023/03/17 07:17:45;;;;;;;12.90;11.60;;;10.20;21.10;;;;;;4936645;29;20419;-51
2023/03/17 07:20:12;;;;;;;13.03;12.00;;;10.20;20.70;;;;;;4938543;28;20454;-56
2023/03/17 07:22:38;;;;;;;14.63;13.53;;;10.20;21.40;;;;;;4956320;28;20421;-53
2023/03/17 07:25:04;;;;;;;12.93;11.97;;;10.30;21.10;;;;;;4956497;28;20441;-53
2023/03/17 07:27:30;;;;;;;14.07;13.07;;;10.40;21.00;;;;;;4956397;28;20418;-51
2023/03/17 07:29:56;;;;;;;12.90;12.10;;;10.50;20.30;;;;;;4953894;28;20427;-54
2023/03/17 07:32:22;;;;;;;13.33;12.10;;;10.50;20.40;;;;;;4931944;29;20427;-53
2023/03/17 07:34:48;;;;;;;12.87;12.00;;;10.60;20.70;;;;;;4927809;29;20222;-53
2023/03/17 07:37:14;;;;;;;11.17;10.30;;;10.60;20.70;;;;;;4928663;29;20250;-54
2023/03/17 07:39:39;;;;;;;11.60;10.80;;;10.70;20.40;;;;;;4952742;28;20429;-53
2023/03/17 07:42:05;;;;;;;12.53;11.80;;;10.70;20.40;;;;;;4936733;29;20848;-56
2023/03/17 07:44:32;;;;;;;12.07;10.20;;;10.80;19.60;;;;;;4930851;29;20191;-56
2023/03/17 07:46:57;;;;;;;12.23;11.33;;;10.70;17.40;;;;;;4927520;29;20415;-54
2023/03/17 07:49:23;;;;;;;11.83;11.03;;;10.80;19.50;;;;;;4934910;29;20517;-53
2023/03/17 07:51:49;;;;;;;13.50;12.43;;;10.80;19.60;;;;;;4934624;29;20245;-55
2023/03/17 07:54:15;;;;;;;12.40;11.67;;;10.90;19.70;;;;;;4946973;28;20214;-53
2023/03/17 07:56:41;;;;;;;12.10;11.13;;;10.90;20.70;;;;;;4921346;29;20184;-53
2023/03/17 07:59:09;;;;;;;12.40;11.27;;;11.00;19.90;;;;;;4925383;29;20429;-52
2023/03/17 08:01:35;;;;;;;11.70;10.90;;;11.10;19.80;;;;;;4923605;29;20668;-52
2023/03/17 08:04:01;;;;;;;13.67;12.73;;;11.10;20.00;;;;;;4925563;29;20435;-50
2023/03/17 08:06:27;;;;;;;13.53;12.57;;;11.20;19.70;;;;;;4920815;29;20423;-52
2023/03/17 08:08:53;;;;;;;13.93;13.03;;;11.20;19.90;;;;;;4940007;28;20491;-54
2023/03/17 08:11:20;;;;;;;12.27;11.57;;;11.20;19.80;;;;;;4934150;29;20194;-55
2023/03/17 08:13:46;;;;;;;13.67;12.47;;;11.20;19.20;;;;;;4919123;29;20459;-55
2023/03/17 08:16:12;;;;;;;12.70;11.70;;;11.20;19.10;;;;;;4927192;29;20411;-52
2023/03/17 08:18:38;;;;;;;14.40;13.33;;;11.30;19.20;;;;;;4926836;29;20424;-54
2023/03/17 08:21:05;;;;;;;12.17;11.10;;;11.40;19.10;;;;;;4934705;28;20186;-59
2023/03/17 08:23:32;;;;;;;12.80;11.90;;;11.40;18.40;;;;;;4937907;29;20280;-59
2023/03/17 08:25:58;;;;;;;12.10;11.50;;;11.40;18.60;;;;;;4936484;28;20463;-59
2023/03/17 08:28:24;;;;;;;11.87;10.87;;;11.50;18.00;;;;;;4917407;29;20471;-59
2023/03/17 08:30:50;;;;;;;11.90;11.10;;;11.60;18.00;;;;;;4919885;29;20920;-59
2023/03/17 08:33:16;;;;;;;13.60;12.50;;;11.60;18.30;;;;;;4920960;29;20423;-59
2023/03/17 08:35:42;;;;;;;12.33;11.43;;;11.60;18.40;;;;;;4921459;29;20202;-59
2023/03/17 08:38:08;;;;;;;12.90;12.00;;;11.70;18.00;;;;;;4939964;29;20187;-60
2023/03/17 08:40:35;;;;;;;12.07;11.27;;;11.60;18.40;;;;;;4940231;29;20423;-59
2023/03/17 08:43:01;;;;;;;11.73;10.73;;;11.70;18.20;;;;;;4939750;29;20427;-60
2023/03/17 08:45:27;;;;;;;12.43;11.43;;;11.80;17.80;;;;;;4935572;29;20513;-59
2023/03/17 08:47:54;;;;;;;12.90;11.90;;;11.80;16.80;;;;;;4944303;28;20512;-59
2023/03/17 08:50:22;;;;;;;12.53;11.73;;;11.90;17.30;;;;;;4959423;28;20568;-59
2023/03/17 08:52:48;;;;;;;12.30;11.40;;;12.00;17.10;;;;;;4959028;28;20787;-59
2023/03/17 08:55:15;;;;;;;12.00;11.20;;;12.00;16.30;;;;;;4958968;28;20815;-59
2023/03/17 08:57:43;;;;;;;11.63;10.80;;;12.10;16.80;;;;;;4946958;29;20419;-59
2023/03/17 09:00:14;;;;;;;10.97;10.37;;;12.20;16.40;;;;;;4942161;28;20478;-59
2023/03/17 09:02:43;;;;;;;11.63;10.70;;;12.30;16.50;;;;;;4959010;28;20410;-59
2023/03/17 09:05:12;;;;;;;11.63;10.93;;;12.40;16.20;;;;;;4944614;29;20795;-59
2023/03/17 09:07:38;;;;;;;9.73;9.07;;;12.50;15.90;;;;;;4932261;29;20588;-59
2023/03/17 09:10:06;;;;;;;11.33;10.40;;;12.70;15.40;;;;;;4920487;29;20428;-59
2023/03/17 09:12:32;;;;;;;9.23;8.63;;;12.90;14.20;;;;;;4920541;29;20601;-59
2023/03/17 09:14:58;;;;;;;10.30;9.43;;;13.20;15.00;;;;;;4920332;29;20478;-59
2023/03/17 09:17:24;;;;;;;8.30;7.80;;;13.50;14.30;;;;;;4934516;29;20423;-59
2023/03/17 09:19:51;;;;;;;9.97;9.20;;;13.80;13.70;;;;;;4939489;29;20423;-59
2023/03/17 09:22:20;;;;;;;9.10;8.27;;;14.10;13.50;;;;;;4938972;29;20187;-59
2023/03/17 09:24:46;;;;;;;10.43;9.73;;;14.20;13.20;;;;;;4939213;29;20426;-60
2023/03/17 09:27:12;;;;;;;11.33;10.20;;;14.30;13.60;;;;;;4939418;29;20832;-60
2023/03/17 09:29:38;;;;;;;12.40;11.30;;;14.30;12.10;;;;;;4939517;29;20438;-59
2023/03/17 09:32:03;;;;;;;13.07;12.07;;;14.20;13.00;;;;;;4936775;29;20430;-60
2023/03/17 09:34:30;;;;;;;11.80;10.77;;;14.20;13.10;;;;;;4937521;29;20577;-60
2023/03/17 09:36:55;;;;;;;12.43;10.50;;;14.30;13.60;;;;;;4935673;28;20234;-60
2023/03/17 09:39:22;;;;;;;10.90;10.30;;;14.40;13.20;;;;;;4937388;29;20424;-60
2023/03/17 09:42:08;;;;;;;11.57;10.77;;;14.40;12.60;;;;;;4927386;29;20271;-60
2023/03/17 09:45:04;;;;;;;10.90;10.20;;;14.40;12.80;;;;;;4937428;29;20431;-60
2023/03/17 09:48:17;;;;;;;12.80;11.90;;;14.50;13.00;;;;;;4905449;29;20423;-60
2023/03/17 09:51:04;;;;;;;12.37;11.10;;;14.60;12.90;;;;;;4876069;29;20802;-56
2023/03/17 09:53:33;;;;;;;10.63;10.03;;;14.80;12.90;;;;;;4951083;28;20493;-55
2023/03/17 09:56:04;;;;;;;10.47;9.83;;;14.90;12.60;;;;;;4937920;29;20427;-57
2023/03/17 09:58:35;;;;;;;11.90;9.40;;;15.00;12.60;;;;;;4938712;29;20447;-57
2023/03/17 10:01:04;;;;;;;10.40;9.57;;;14.90;12.00;;;;;;4938733;29;20422;-56
2023/03/17 10:03:31;;;;;;;9.70;9.00;;;14.80;11.80;;;;;;4935106;29;20801;-55
2023/03/17 10:06:28;;;;;;;11.13;10.23;;;14.90;12.20;;;;;;4934111;29;20506;-55
2023/03/17 10:09:03;;;;;;;9.90;9.40;;;14.90;12.90;;;;;;4936698;29;20435;-56
2023/03/17 10:11:44;;;;;;;10.77;9.87;;;15.00;13.30;;;;;;4930221;29;20502;-57
2023/03/17 10:14:52;;;;;;;9.53;9.07;;;14.90;12.00;;;;;;4919442;29;20463;-57
2023/03/17 10:17:24;;;;;;;9.40;9.00;;;14.90;12.70;;;;;;4911995;29;20428;-56
2023/03/17 10:19:56;;;;;;;9.57;9.17;;;15.00;12.80;;;;;;4927013;29;20415;-59
2023/03/17 10:22:36;;;;;;;10.87;9.40;;;15.00;12.70;;;;;;4928427;29;20847;-57
2023/03/17 10:25:24;;;;;;;9.37;8.67;;;15.10;12.00;;;;;;4924041;29;20530;-54
2023/03/17 10:28:06;;;;;;;13.40;8.80;;;15.00;12.40;;;;;;4934429;29;20789;-60
2023/03/17 10:30:33;;;;;;;10.67;10.07;;;15.10;12.60;;;;;;4938034;29;20422;-60
2023/03/17 10:33:00;;;;;;;10.00;9.17;;;15.10;12.30;;;;;;4953815;29;20631;-61
2023/03/17 10:35:26;;;;;;;11.13;10.33;;;15.10;12.50;;;;;;4938026;29;20471;-61
2023/03/17 10:37:52;;;;;;;10.70;10.00;;;15.20;12.80;;;;;;4953746;29;20419;-61
2023/03/17 10:40:20;;;;;;;10.20;9.70;;;15.20;12.60;;;;;;4937966;29;20187;-60
2023/03/17 10:42:48;;;;;;;9.73;9.03;;;15.20;12.60;;;;;;4937538;29;20427;-60
2023/03/17 10:45:28;;;;;;;8.80;8.40;;;15.20;12.00;;;;;;4938022;29;20435;-61
2023/03/17 10:47:56;;;;;;;10.67;9.97;;;15.30;11.70;;;;;;4937744;29;20450;-60
2023/03/17 10:50:31;;;;;;;10.00;9.27;;;15.30;11.10;;;;;;4937909;29;20903;-60
2023/03/17 10:52:58;;;;;;;9.77;9.27;;;15.40;11.60;;;;;;4945273;28;20440;-61
2023/03/17 10:55:28;;;;;;;9.97;9.43;;;15.50;11.80;;;;;;4956933;28;20465;-61
2023/03/17 10:58:04;;;;;;;15.00;9.73;;;15.60;12.30;;;;;;4956748;28;20446;-61
2023/03/17 11:00:34;;;;;;;9.70;9.30;;;15.70;11.10;;;;;;4956859;28;20929;-61
2023/03/17 11:03:11;;;;;;;10.13;9.50;;;15.80;11.70;;;;;;4937435;29;20419;-61
2023/03/17 11:05:37;;;;;;;10.43;9.67;;;15.90;11.70;;;;;;4927880;29;20433;-61
2023/03/17 11:08:17;;;;;;;12.37;9.50;;;15.90;11.70;;;;;;4944378;28;20449;-60
2023/03/17 11:10:43;;;;;;;9.80;9.30;;;16.00;10.60;;;;;;4956960;28;20428;-60
2023/03/17 11:13:15;;;;;;;9.50;8.93;;;16.10;11.10;;;;;;4943709;29;20916;-59
2023/03/17 11:15:48;;;;;;;9.33;8.73;;;16.00;10.80;;;;;;4932076;29;20451;-63
2023/03/17 11:18:27;;;;;;;9.50;9.00;;;16.10;11.00;;;;;;4936897;29;20501;-59
2023/03/17 11:21:05;;;;;;;9.17;8.77;;;16.10;11.30;;;;;;4952073;28;20775;-60
2023/03/17 11:23:45;;;;;;;10.83;8.60;;;16.10;11.60;;;;;;4948635;28;20473;-59
2023/03/17 11:26:30;;;;;;;9.60;9.10;;;16.10;10.50;;;;;;4956124;28;20426;-59
2023/03/17 11:29:11;;;;;;;10.00;9.40;;;16.10;10.60;;;;;;4950011;29;20588;-59
2023/03/17 11:32:03;;;;;;;8.10;7.80;;;16.20;10.50;;;;;;4936885;29;20423;-59
2023/03/17 11:34:34;;;;;;;8.97;8.47;;;16.20;10.50;;;;;;4936149;29;20812;-59
2023/03/17 11:37:31;;;;;;;8.40;8.00;;;16.20;10.50;;;;;;4954048;29;20419;-59
2023/03/17 11:40:18;;;;;;;9.60;9.07;;;16.30;10.60;;;;;;4917957;29;20420;-59
2023/03/17 11:42:47;;;;;;;9.83;9.13;;;16.30;10.60;;;;;;4917425;29;20939;-59
2023/03/17 11:45:53;;;;;;;9.73;8.60;;;16.30;10.60;;;;;;4917988;29;20436;-57
2023/03/17 11:48:44;;;;;;;9.07;8.67;;;16.40;10.60;;;;;;4915817;29;20769;-56
2023/03/17 11:51:26;;;;;;;8.53;7.93;;;16.40;10.60;;;;;;4936598;29;20900;-56
2023/03/17 11:54:04;;;;;;;8.27;7.87;;;16.40;10.70;;;;;;4932196;29;20463;-55
2023/03/17 11:56:53;;;;;;;9.43;8.90;;;16.50;10.70;;;;;;4921327;29;20420;-55
2023/03/17 11:59:35;;;;;;;8.50;8.10;;;16.60;10.80;;;;;;4917386;29;20420;-57
2023/03/17 12:02:09;;;;;;;9.07;8.50;;;16.60;10.80;;;;;;4917670;29;20420;-57
2023/03/17 12:04:42;;;;;;;8.40;7.90;;;16.60;10.80;;;;;;4926014;28;20430;-60
2023/03/17 12:07:30;;;;;;;8.60;8.10;;;16.70;11.70;;;;;;4943377;29;20424;-59
2023/03/17 12:10:21;;;;;;;8.17;7.77;;;16.70;11.40;;;;;;4908643;29;20472;-59
2023/03/17 12:13:03;;;;;;;9.90;7.90;;;16.70;11.50;;;;;;4917550;29;20546;-59
2023/03/17 12:15:44;;;;;;;8.60;8.00;;;16.60;11.30;;;;;;4918348;29;20813;-60
2023/03/17 12:18:19;;;;;;;7.87;7.43;;;16.70;11.30;;;;;;4917111;29;20784;-60
2023/03/17 12:20:45;;;;;;;9.17;8.77;;;16.70;11.60;;;;;;4915574;29;20431;-60
2023/03/17 12:23:15;;;;;;;8.43;7.83;;;16.70;11.50;;;;;;4921785;29;20431;-59
2023/03/17 12:26:06;;;;;;;8.03;7.63;;;16.70;11.70;;;;;;4953685;29;20190;-60
2023/03/17 12:28:37;;;;;;;7.83;7.40;;;16.80;11.70;;;;;;4936430;29;20798;-60
2023/03/17 12:31:19;;;;;;;8.00;7.53;;;16.80;11.70;;;;;;4936246;29;20916;-60
2023/03/17 12:34:16;;;;;;;8.53;8.07;;;16.80;11.60;;;;;;4936309;29;20458;-60
2023/03/17 12:36:43;;;;;;;7.80;7.30;;;16.90;11.00;;;;;;4936734;29;20434;-60
2023/03/17 12:39:31;;;;;;;9.03;8.63;;;17.00;11.00;;;;;;4936616;29;20446;-60
2023/03/17 12:42:15;;;;;;;8.60;8.30;;;17.00;10.20;;;;;;4916718;29;20503;-59
2023/03/17 12:45:15;;;;;;;8.37;7.97;;;17.00;10.30;;;;;;4917149;29;20511;-59
2023/03/17 12:48:08;;;;;;;8.40;7.93;;;17.10;10.50;;;;;;4917736;29;20435;-59